sensor_id;sensor_type;location;lat;lon;timestamp;P1;durP1;ratioP1;P2;durP2;ratioP2
45041;SDS011;30779;52.096;4.410;2022-12-10T00:00:32;169.55;;;49.17;;
45041;SDS011;30779;52.096;4.410;2022-12-10T00:03:33;161.65;;;46.05;;
45041;SDS011;30779;52.096;4.410;2022-12-10T00:06:35;155.10;;;45.38;;
45041;SDS011;30779;52.096;4.410;2022-12-10T00:09:36;167.27;;;44.95;;
45041;SDS011;30779;52.096;4.410;2022-12-10T00:12:37;172.73;;;46.03;;
45041;SDS011;30779;52.096;4.410;2022-12-10T00:15:38;165.77;;;47.15;;
45041;SDS011;30779;52.096;4.410;2022-12-10T00:18:39;145.55;;;46.15;;
45041;SDS011;30779;52.096;4.410;2022-12-10T00:21:41;153.77;;;47.17;;
45041;SDS011;30779;52.096;4.410;2022-12-10T00:24:42;148.88;;;44.40;;
45041;SDS011;30779;52.096;4.410;2022-12-10T00:27:43;165.38;;;48.10;;
45041;SDS011;30779;52.096;4.410;2022-12-10T00:30:44;161.32;;;44.40;;
45041;SDS011;30779;52.096;4.410;2022-12-10T00:33:46;133.23;;;41.78;;
45041;SDS011;30779;52.096;4.410;2022-12-10T00:36:47;192.27;;;49.83;;
45041;SDS011;30779;52.096;4.410;2022-12-10T00:39:49;143.60;;;44.67;;
45041;SDS011;30779;52.096;4.410;2022-12-10T00:42:50;160.60;;;46.22;;
45041;SDS011;30779;52.096;4.410;2022-12-10T00:45:51;165.35;;;46.13;;
45041;SDS011;30779;52.096;4.410;2022-12-10T00:48:52;161.52;;;47.92;;
45041;SDS011;30779;52.096;4.410;2022-12-10T00:51:53;166.77;;;48.72;;
45041;SDS011;30779;52.096;4.410;2022-12-10T00:54:54;155.15;;;47.25;;
45041;SDS011;30779;52.096;4.410;2022-12-10T00:57:55;169.63;;;47.08;;
45041;SDS011;30779;52.096;4.410;2022-12-10T01:01:06;157.02;;;45.65;;
45041;SDS011;30779;52.096;4.410;2022-12-10T01:04:12;146.85;;;41.80;;
45041;SDS011;30779;52.096;4.410;2022-12-10T01:07:13;151.40;;;46.35;;
45041;SDS011;30779;52.096;4.410;2022-12-10T01:10:17;141.40;;;42.10;;
45041;SDS011;30779;52.096;4.410;2022-12-10T01:13:18;157.20;;;44.78;;
45041;SDS011;30779;52.096;4.410;2022-12-10T01:16:19;154.93;;;45.03;;
45041;SDS011;30779;52.096;4.410;2022-12-10T01:19:21;153.35;;;45.47;;
45041;SDS011;30779;52.096;4.410;2022-12-10T01:22:22;157.50;;;46.25;;
45041;SDS011;30779;52.096;4.410;2022-12-10T01:25:23;156.90;;;47.33;;
45041;SDS011;30779;52.096;4.410;2022-12-10T01:28:24;148.82;;;46.55;;
45041;SDS011;30779;52.096;4.410;2022-12-10T01:31:29;165.15;;;50.70;;
45041;SDS011;30779;52.096;4.410;2022-12-10T01:34:30;160.18;;;51.00;;
45041;SDS011;30779;52.096;4.410;2022-12-10T01:37:31;183.57;;;49.35;;
45041;SDS011;30779;52.096;4.410;2022-12-10T01:40:36;181.65;;;50.97;;
45041;SDS011;30779;52.096;4.410;2022-12-10T01:46:54;165.82;;;49.38;;
45041;SDS011;30779;52.096;4.410;2022-12-10T01:49:55;169.02;;;49.28;;
45041;SDS011;30779;52.096;4.410;2022-12-10T01:52:57;185.75;;;50.40;;
45041;SDS011;30779;52.096;4.410;2022-12-10T01:55:58;185.57;;;51.13;;
45041;SDS011;30779;52.096;4.410;2022-12-10T01:58:59;194.30;;;51.17;;
45041;SDS011;30779;52.096;4.410;2022-12-10T02:11:34;280.00;;;62.55;;
45041;SDS011;30779;52.096;4.410;2022-12-10T02:15:00;333.58;;;67.82;;
45041;SDS011;30779;52.096;4.410;2022-12-10T02:18:13;313.38;;;66.90;;
45041;SDS011;30779;52.096;4.410;2022-12-10T02:21:19;333.55;;;70.47;;
45041;SDS011;30779;52.096;4.410;2022-12-10T02:24:23;283.25;;;62.50;;
45041;SDS011;30779;52.096;4.410;2022-12-10T02:27:28;314.73;;;66.57;;
45041;SDS011;30779;52.096;4.410;2022-12-10T02:30:30;334.20;;;69.35;;
45041;SDS011;30779;52.096;4.410;2022-12-10T02:33:32;363.40;;;73.18;;
45041;SDS011;30779;52.096;4.410;2022-12-10T02:36:37;376.88;;;77.10;;
45041;SDS011;30779;52.096;4.410;2022-12-10T02:39:39;395.95;;;80.25;;
45041;SDS011;30779;52.096;4.410;2022-12-10T02:42:41;343.83;;;68.70;;
45041;SDS011;30779;52.096;4.410;2022-12-10T02:45:43;325.80;;;68.18;;
45041;SDS011;30779;52.096;4.410;2022-12-10T02:48:45;372.58;;;74.13;;
45041;SDS011;30779;52.096;4.410;2022-12-10T02:51:47;422.52;;;78.00;;
45041;SDS011;30779;52.096;4.410;2022-12-10T02:54:49;349.65;;;69.70;;
45041;SDS011;30779;52.096;4.410;2022-12-10T02:58:02;397.25;;;72.68;;
45041;SDS011;30779;52.096;4.410;2022-12-10T03:04:26;358.88;;;70.03;;
45041;SDS011;30779;52.096;4.410;2022-12-10T03:07:41;473.42;;;85.60;;
45041;SDS011;30779;52.096;4.410;2022-12-10T03:14:22;298.27;;;59.33;;
45041;SDS011;30779;52.096;4.410;2022-12-10T03:17:24;374.15;;;67.15;;
45041;SDS011;30779;52.096;4.410;2022-12-10T03:20:27;405.02;;;74.03;;
45041;SDS011;30779;52.096;4.410;2022-12-10T03:23:30;446.02;;;77.70;;
45041;SDS011;30779;52.096;4.410;2022-12-10T03:26:32;487.45;;;88.40;;
45041;SDS011;30779;52.096;4.410;2022-12-10T03:29:34;425.35;;;77.60;;
45041;SDS011;30779;52.096;4.410;2022-12-10T03:32:36;329.00;;;65.40;;
45041;SDS011;30779;52.096;4.410;2022-12-10T03:35:38;251.63;;;51.45;;
45041;SDS011;30779;52.096;4.410;2022-12-10T03:38:39;384.88;;;70.45;;
45041;SDS011;30779;52.096;4.410;2022-12-10T03:41:44;377.98;;;71.03;;
45041;SDS011;30779;52.096;4.410;2022-12-10T03:44:45;489.38;;;91.45;;
45041;SDS011;30779;52.096;4.410;2022-12-10T03:47:46;495.10;;;91.75;;
45041;SDS011;30779;52.096;4.410;2022-12-10T03:50:49;439.20;;;77.33;;
45041;SDS011;30779;52.096;4.410;2022-12-10T03:53:50;425.27;;;76.97;;
45041;SDS011;30779;52.096;4.410;2022-12-10T03:56:51;283.15;;;56.67;;
45041;SDS011;30779;52.096;4.410;2022-12-10T03:59:52;315.90;;;60.63;;
45041;SDS011;30779;52.096;4.410;2022-12-10T04:02:53;392.67;;;69.50;;
45041;SDS011;30779;52.096;4.410;2022-12-10T04:05:54;374.70;;;67.20;;
45041;SDS011;30779;52.096;4.410;2022-12-10T04:08:55;545.25;;;93.82;;
45041;SDS011;30779;52.096;4.410;2022-12-10T04:11:56;381.48;;;66.25;;
45041;SDS011;30779;52.096;4.410;2022-12-10T04:14:58;427.13;;;76.28;;
45041;SDS011;30779;52.096;4.410;2022-12-10T04:18:17;469.00;;;80.35;;
45041;SDS011;30779;52.096;4.410;2022-12-10T04:21:18;318.83;;;62.63;;
45041;SDS011;30779;52.096;4.410;2022-12-10T04:24:38;315.88;;;60.13;;
45041;SDS011;30779;52.096;4.410;2022-12-10T04:27:57;345.10;;;62.88;;
45041;SDS011;30779;52.096;4.410;2022-12-10T04:31:01;442.42;;;80.88;;
45041;SDS011;30779;52.096;4.410;2022-12-10T04:34:02;416.25;;;74.57;;
45041;SDS011;30779;52.096;4.410;2022-12-10T04:37:03;386.55;;;68.53;;
45041;SDS011;30779;52.096;4.410;2022-12-10T04:40:05;462.25;;;85.15;;
45041;SDS011;30779;52.096;4.410;2022-12-10T04:43:06;449.98;;;82.78;;
45041;SDS011;30779;52.096;4.410;2022-12-10T04:46:07;338.33;;;62.63;;
45041;SDS011;30779;52.096;4.410;2022-12-10T04:49:08;419.73;;;71.90;;
45041;SDS011;30779;52.096;4.410;2022-12-10T04:52:10;350.55;;;63.35;;
45041;SDS011;30779;52.096;4.410;2022-12-10T04:55:12;439.25;;;77.78;;
45041;SDS011;30779;52.096;4.410;2022-12-10T04:58:15;330.98;;;59.38;;
45041;SDS011;30779;52.096;4.410;2022-12-10T05:04:20;442.80;;;75.18;;
45041;SDS011;30779;52.096;4.410;2022-12-10T05:07:21;391.73;;;70.28;;
45041;SDS011;30779;52.096;4.410;2022-12-10T05:10:22;314.27;;;58.03;;
45041;SDS011;30779;52.096;4.410;2022-12-10T05:13:23;416.77;;;74.65;;
45041;SDS011;30779;52.096;4.410;2022-12-10T05:16:26;389.30;;;67.93;;
45041;SDS011;30779;52.096;4.410;2022-12-10T05:19:27;399.85;;;71.43;;
45041;SDS011;30779;52.096;4.410;2022-12-10T05:22:28;362.98;;;65.20;;
45041;SDS011;30779;52.096;4.410;2022-12-10T05:25:48;447.85;;;78.45;;
45041;SDS011;30779;52.096;4.410;2022-12-10T05:28:55;439.02;;;74.78;;
45041;SDS011;30779;52.096;4.410;2022-12-10T05:31:56;344.52;;;64.60;;
45041;SDS011;30779;52.096;4.410;2022-12-10T05:34:57;402.80;;;70.65;;
45041;SDS011;30779;52.096;4.410;2022-12-10T05:37:58;507.00;;;88.47;;
45041;SDS011;30779;52.096;4.410;2022-12-10T05:41:06;277.45;;;56.72;;
45041;SDS011;30779;52.096;4.410;2022-12-10T05:44:08;475.15;;;85.38;;
45041;SDS011;30779;52.096;4.410;2022-12-10T05:47:10;285.40;;;54.15;;
45041;SDS011;30779;52.096;4.410;2022-12-10T05:50:11;378.80;;;68.15;;
45041;SDS011;30779;52.096;4.410;2022-12-10T05:53:15;287.52;;;54.70;;
45041;SDS011;30779;52.096;4.410;2022-12-10T05:56:18;319.80;;;59.60;;
45041;SDS011;30779;52.096;4.410;2022-12-10T05:59:20;278.20;;;51.42;;
45041;SDS011;30779;52.096;4.410;2022-12-10T06:02:21;337.20;;;59.35;;
45041;SDS011;30779;52.096;4.410;2022-12-10T06:05:22;393.17;;;66.97;;
45041;SDS011;30779;52.096;4.410;2022-12-10T06:08:23;290.67;;;54.28;;
45041;SDS011;30779;52.096;4.410;2022-12-10T06:11:24;251.63;;;51.83;;
45041;SDS011;30779;52.096;4.410;2022-12-10T06:14:26;301.00;;;59.33;;
45041;SDS011;30779;52.096;4.410;2022-12-10T06:17:27;312.70;;;56.70;;
45041;SDS011;30779;52.096;4.410;2022-12-10T06:20:28;345.15;;;61.90;;
45041;SDS011;30779;52.096;4.410;2022-12-10T06:23:31;374.85;;;65.82;;
45041;SDS011;30779;52.096;4.410;2022-12-10T06:26:34;261.55;;;52.05;;
45041;SDS011;30779;52.096;4.410;2022-12-10T06:29:35;311.48;;;56.70;;
45041;SDS011;30779;52.096;4.410;2022-12-10T06:32:36;241.40;;;48.88;;
45041;SDS011;30779;52.096;4.410;2022-12-10T06:35:37;319.05;;;62.13;;
45041;SDS011;30779;52.096;4.410;2022-12-10T06:38:38;332.95;;;56.97;;
45041;SDS011;30779;52.096;4.410;2022-12-10T06:41:39;342.88;;;60.47;;
45041;SDS011;30779;52.096;4.410;2022-12-10T06:44:45;309.50;;;56.70;;
45041;SDS011;30779;52.096;4.410;2022-12-10T06:47:46;275.92;;;53.63;;
45041;SDS011;30779;52.096;4.410;2022-12-10T06:50:47;297.02;;;58.58;;
45041;SDS011;30779;52.096;4.410;2022-12-10T06:53:48;299.73;;;58.72;;
45041;SDS011;30779;52.096;4.410;2022-12-10T06:56:49;229.98;;;47.08;;
45041;SDS011;30779;52.096;4.410;2022-12-10T06:59:53;267.90;;;53.20;;
45041;SDS011;30779;52.096;4.410;2022-12-10T07:02:54;285.33;;;56.30;;
45041;SDS011;30779;52.096;4.410;2022-12-10T07:05:56;292.13;;;59.50;;
45041;SDS011;30779;52.096;4.410;2022-12-10T07:08:57;248.73;;;51.55;;
45041;SDS011;30779;52.096;4.410;2022-12-10T07:11:58;321.42;;;58.40;;
45041;SDS011;30779;52.096;4.410;2022-12-10T07:15:03;219.43;;;47.35;;
45041;SDS011;30779;52.096;4.410;2022-12-10T07:18:05;290.27;;;56.85;;
45041;SDS011;30779;52.096;4.410;2022-12-10T07:21:16;307.33;;;55.85;;
45041;SDS011;30779;52.096;4.410;2022-12-10T07:24:18;209.70;;;48.08;;
45041;SDS011;30779;52.096;4.410;2022-12-10T07:27:19;313.60;;;56.33;;
45041;SDS011;30779;52.096;4.410;2022-12-10T07:30:20;257.63;;;48.78;;
45041;SDS011;30779;52.096;4.410;2022-12-10T07:33:21;266.85;;;51.88;;
45041;SDS011;30779;52.096;4.410;2022-12-10T07:36:22;302.58;;;56.72;;
45041;SDS011;30779;52.096;4.410;2022-12-10T07:39:23;230.95;;;47.97;;
45041;SDS011;30779;52.096;4.410;2022-12-10T07:42:24;241.88;;;47.95;;
45041;SDS011;30779;52.096;4.410;2022-12-10T07:45:26;259.55;;;51.28;;
45041;SDS011;30779;52.096;4.410;2022-12-10T07:48:27;264.60;;;50.20;;
45041;SDS011;30779;52.096;4.410;2022-12-10T07:51:28;239.63;;;48.65;;
45041;SDS011;30779;52.096;4.410;2022-12-10T07:54:29;306.88;;;57.88;;
45041;SDS011;30779;52.096;4.410;2022-12-10T07:57:30;313.00;;;57.03;;
45041;SDS011;30779;52.096;4.410;2022-12-10T08:00:31;275.92;;;53.25;;
45041;SDS011;30779;52.096;4.410;2022-12-10T08:03:32;250.27;;;48.05;;
45041;SDS011;30779;52.096;4.410;2022-12-10T08:06:33;243.57;;;44.25;;
45041;SDS011;30779;52.096;4.410;2022-12-10T08:09:34;268.52;;;50.28;;
45041;SDS011;30779;52.096;4.410;2022-12-10T08:12:36;331.75;;;59.28;;
45041;SDS011;30779;52.096;4.410;2022-12-10T08:18:41;209.82;;;41.58;;
45041;SDS011;30779;52.096;4.410;2022-12-10T08:21:42;232.10;;;49.78;;
45041;SDS011;30779;52.096;4.410;2022-12-10T08:24:45;214.60;;;48.88;;
45041;SDS011;30779;52.096;4.410;2022-12-10T08:27:46;246.00;;;51.03;;
45041;SDS011;30779;52.096;4.410;2022-12-10T08:30:48;282.70;;;55.08;;
45041;SDS011;30779;52.096;4.410;2022-12-10T08:33:49;295.30;;;54.38;;
45041;SDS011;30779;52.096;4.410;2022-12-10T08:36:50;223.38;;;49.97;;
45041;SDS011;30779;52.096;4.410;2022-12-10T08:39:51;260.20;;;52.65;;
45041;SDS011;30779;52.096;4.410;2022-12-10T08:42:52;262.55;;;56.08;;
45041;SDS011;30779;52.096;4.410;2022-12-10T08:45:53;266.48;;;54.95;;
45041;SDS011;30779;52.096;4.410;2022-12-10T08:48:55;225.25;;;51.75;;
45041;SDS011;30779;52.096;4.410;2022-12-10T08:51:56;235.57;;;50.50;;
45041;SDS011;30779;52.096;4.410;2022-12-10T08:54:57;229.65;;;51.90;;
45041;SDS011;30779;52.096;4.410;2022-12-10T08:57:58;195.00;;;49.28;;
45041;SDS011;30779;52.096;4.410;2022-12-10T09:00:59;201.45;;;50.67;;
45041;SDS011;30779;52.096;4.410;2022-12-10T09:04:01;192.43;;;47.83;;
45041;SDS011;30779;52.096;4.410;2022-12-10T09:07:02;179.07;;;46.60;;
45041;SDS011;30779;52.096;4.410;2022-12-10T09:10:03;158.95;;;42.13;;
45041;SDS011;30779;52.096;4.410;2022-12-10T09:13:04;176.88;;;46.30;;
45041;SDS011;30779;52.096;4.410;2022-12-10T09:16:06;134.02;;;36.75;;
45041;SDS011;30779;52.096;4.410;2022-12-10T09:19:07;174.90;;;49.67;;
45041;SDS011;30779;52.096;4.410;2022-12-10T09:22:08;173.43;;;59.92;;
45041;SDS011;30779;52.096;4.410;2022-12-10T09:25:09;170.75;;;46.72;;
45041;SDS011;30779;52.096;4.410;2022-12-10T09:28:10;189.35;;;50.08;;
45041;SDS011;30779;52.096;4.410;2022-12-10T09:31:12;200.48;;;52.13;;
45041;SDS011;30779;52.096;4.410;2022-12-10T09:34:13;161.93;;;47.13;;
45041;SDS011;30779;52.096;4.410;2022-12-10T09:37:14;170.90;;;51.92;;
45041;SDS011;30779;52.096;4.410;2022-12-10T09:40:16;191.95;;;54.95;;
45041;SDS011;30779;52.096;4.410;2022-12-10T09:52:40;154.90;;;47.65;;
45041;SDS011;30779;52.096;4.410;2022-12-10T09:55:46;169.43;;;47.05;;
45041;SDS011;30779;52.096;4.410;2022-12-10T09:58:47;169.80;;;48.95;;
45041;SDS011;30779;52.096;4.410;2022-12-10T10:01:50;173.32;;;47.10;;
45041;SDS011;30779;52.096;4.410;2022-12-10T10:04:53;162.40;;;45.83;;
45041;SDS011;30779;52.096;4.410;2022-12-10T10:07:55;222.90;;;49.07;;
45041;SDS011;30779;52.096;4.410;2022-12-10T10:10:58;175.13;;;46.05;;
45041;SDS011;30779;52.096;4.410;2022-12-10T10:14:00;178.88;;;47.60;;
45041;SDS011;30779;52.096;4.410;2022-12-10T10:17:07;139.80;;;40.47;;
45041;SDS011;30779;52.096;4.410;2022-12-10T10:20:11;175.38;;;46.20;;
45041;SDS011;30779;52.096;4.410;2022-12-10T10:23:13;187.93;;;46.05;;
45041;SDS011;30779;52.096;4.410;2022-12-10T10:26:15;172.82;;;46.15;;
45041;SDS011;30779;52.096;4.410;2022-12-10T10:29:17;178.45;;;47.05;;
45041;SDS011;30779;52.096;4.410;2022-12-10T10:32:20;187.80;;;49.25;;
45041;SDS011;30779;52.096;4.410;2022-12-10T10:38:27;179.30;;;47.75;;
45041;SDS011;30779;52.096;4.410;2022-12-10T10:41:28;206.55;;;50.58;;
45041;SDS011;30779;52.096;4.410;2022-12-10T10:44:37;211.23;;;52.63;;
45041;SDS011;30779;52.096;4.410;2022-12-10T10:47:38;201.25;;;56.92;;
45041;SDS011;30779;52.096;4.410;2022-12-10T10:50:41;185.98;;;49.55;;
45041;SDS011;30779;52.096;4.410;2022-12-10T10:53:49;225.20;;;65.80;;
45041;SDS011;30779;52.096;4.410;2022-12-10T10:56:54;151.07;;;46.15;;
45041;SDS011;30779;52.096;4.410;2022-12-10T10:59:56;192.55;;;52.28;;
45041;SDS011;30779;52.096;4.410;2022-12-10T11:03:01;136.73;;;42.45;;
45041;SDS011;30779;52.096;4.410;2022-12-10T11:06:06;150.23;;;44.63;;
45041;SDS011;30779;52.096;4.410;2022-12-10T11:09:13;164.10;;;50.53;;
45041;SDS011;30779;52.096;4.410;2022-12-10T11:12:29;194.65;;;75.47;;
45041;SDS011;30779;52.096;4.410;2022-12-10T11:15:37;168.02;;;45.38;;
45041;SDS011;30779;52.096;4.410;2022-12-10T11:18:42;149.98;;;47.50;;
45041;SDS011;30779;52.096;4.410;2022-12-10T11:21:44;174.00;;;57.30;;
45041;SDS011;30779;52.096;4.410;2022-12-10T11:24:46;160.80;;;46.40;;
45041;SDS011;30779;52.096;4.410;2022-12-10T11:30:51;182.52;;;56.33;;
45041;SDS011;30779;52.096;4.410;2022-12-10T11:33:57;197.18;;;54.47;;
45041;SDS011;30779;52.096;4.410;2022-12-10T12:01:42;190.07;;;49.80;;
45041;SDS011;30779;52.096;4.410;2022-12-10T12:05:07;186.32;;;49.92;;
45041;SDS011;30779;52.096;4.410;2022-12-10T12:14:44;181.88;;;51.15;;
45041;SDS011;30779;52.096;4.410;2022-12-10T12:21:12;170.57;;;47.80;;
45041;SDS011;30779;52.096;4.410;2022-12-10T12:24:16;193.20;;;52.55;;
45041;SDS011;30779;52.096;4.410;2022-12-10T12:27:24;200.57;;;48.05;;
45041;SDS011;30779;52.096;4.410;2022-12-10T12:30:26;179.32;;;49.03;;
45041;SDS011;30779;52.096;4.410;2022-12-10T12:33:28;166.73;;;44.83;;
45041;SDS011;30779;52.096;4.410;2022-12-10T12:36:30;177.35;;;45.65;;
45041;SDS011;30779;52.096;4.410;2022-12-10T12:39:38;162.60;;;46.53;;
45041;SDS011;30779;52.096;4.410;2022-12-10T12:42:53;170.27;;;47.03;;
45041;SDS011;30779;52.096;4.410;2022-12-10T12:45:55;162.10;;;45.33;;
45041;SDS011;30779;52.096;4.410;2022-12-10T12:48:58;144.75;;;43.72;;
45041;SDS011;30779;52.096;4.410;2022-12-10T12:55:04;132.77;;;40.28;;
45041;SDS011;30779;52.096;4.410;2022-12-10T13:01:21;163.70;;;50.50;;
45041;SDS011;30779;52.096;4.410;2022-12-10T13:04:25;178.23;;;51.67;;
45041;SDS011;30779;52.096;4.410;2022-12-10T13:07:27;154.55;;;45.38;;
45041;SDS011;30779;52.096;4.410;2022-12-10T13:10:28;167.45;;;52.97;;
45041;SDS011;30779;52.096;4.410;2022-12-10T13:13:39;156.43;;;46.45;;
45041;SDS011;30779;52.096;4.410;2022-12-10T13:19:43;172.73;;;49.27;;
45041;SDS011;30779;52.096;4.410;2022-12-10T13:22:54;149.98;;;44.28;;
45041;SDS011;30779;52.096;4.410;2022-12-10T13:25:56;228.57;;;74.85;;
45041;SDS011;30779;52.096;4.410;2022-12-10T13:29:11;162.05;;;47.92;;
45041;SDS011;30779;52.096;4.410;2022-12-10T13:32:14;213.80;;;60.55;;
45041;SDS011;30779;52.096;4.410;2022-12-10T13:35:16;211.60;;;66.25;;
45041;SDS011;30779;52.096;4.410;2022-12-10T13:38:22;174.02;;;49.05;;
45041;SDS011;30779;52.096;4.410;2022-12-10T13:41:23;194.80;;;59.40;;
45041;SDS011;30779;52.096;4.410;2022-12-10T13:44:48;162.70;;;55.95;;
45041;SDS011;30779;52.096;4.410;2022-12-10T13:47:50;133.32;;;43.50;;
45041;SDS011;30779;52.096;4.410;2022-12-10T13:51:01;160.88;;;51.47;;
45041;SDS011;30779;52.096;4.410;2022-12-10T13:57:34;141.77;;;45.75;;
45041;SDS011;30779;52.096;4.410;2022-12-10T14:00:49;155.05;;;55.42;;
45041;SDS011;30779;52.096;4.410;2022-12-10T14:07:13;129.95;;;41.00;;
45041;SDS011;30779;52.096;4.410;2022-12-10T14:10:16;153.85;;;51.08;;
45041;SDS011;30779;52.096;4.410;2022-12-10T14:13:18;168.40;;;62.58;;
45041;SDS011;30779;52.096;4.410;2022-12-10T14:16:21;130.73;;;44.37;;
45041;SDS011;30779;52.096;4.410;2022-12-10T14:19:23;147.23;;;46.88;;
45041;SDS011;30779;52.096;4.410;2022-12-10T14:22:31;150.85;;;59.40;;
45041;SDS011;30779;52.096;4.410;2022-12-10T14:25:34;138.68;;;45.30;;
45041;SDS011;30779;52.096;4.410;2022-12-10T14:28:45;141.48;;;48.05;;
45041;SDS011;30779;52.096;4.410;2022-12-10T14:31:48;133.10;;;43.00;;
45041;SDS011;30779;52.096;4.410;2022-12-10T14:34:54;126.10;;;45.47;;
45041;SDS011;30779;52.096;4.410;2022-12-10T14:37:59;127.22;;;44.30;;
45041;SDS011;30779;52.096;4.410;2022-12-10T14:41:01;125.28;;;40.80;;
45041;SDS011;30779;52.096;4.410;2022-12-10T14:44:03;115.63;;;42.40;;
45041;SDS011;30779;52.096;4.410;2022-12-10T14:47:06;127.18;;;44.35;;
45041;SDS011;30779;52.096;4.410;2022-12-10T14:50:11;119.53;;;38.92;;
45041;SDS011;30779;52.096;4.410;2022-12-10T14:53:14;136.95;;;43.50;;
45041;SDS011;30779;52.096;4.410;2022-12-10T14:56:20;129.35;;;46.40;;
45041;SDS011;30779;52.096;4.410;2022-12-10T14:59:24;133.00;;;47.95;;
45041;SDS011;30779;52.096;4.410;2022-12-10T15:02:31;131.63;;;44.05;;
45041;SDS011;30779;52.096;4.410;2022-12-10T15:05:33;126.85;;;38.83;;
45041;SDS011;30779;52.096;4.410;2022-12-10T15:08:35;128.48;;;42.33;;
45041;SDS011;30779;52.096;4.410;2022-12-10T15:11:36;125.03;;;41.63;;
45041;SDS011;30779;52.096;4.410;2022-12-10T15:14:37;126.05;;;43.13;;
45041;SDS011;30779;52.096;4.410;2022-12-10T15:17:40;137.20;;;42.13;;
45041;SDS011;30779;52.096;4.410;2022-12-10T15:23:44;123.78;;;43.08;;
45041;SDS011;30779;52.096;4.410;2022-12-10T15:26:46;143.90;;;47.80;;
45041;SDS011;30779;52.096;4.410;2022-12-10T15:29:48;137.65;;;45.00;;
45041;SDS011;30779;52.096;4.410;2022-12-10T15:32:49;142.40;;;45.25;;
45041;SDS011;30779;52.096;4.410;2022-12-10T15:35:53;147.98;;;45.92;;
45041;SDS011;30779;52.096;4.410;2022-12-10T15:38:54;146.40;;;44.95;;
45041;SDS011;30779;52.096;4.410;2022-12-10T15:44:58;153.10;;;46.30;;
45041;SDS011;30779;52.096;4.410;2022-12-10T15:48:00;151.85;;;44.00;;
45041;SDS011;30779;52.096;4.410;2022-12-10T15:51:01;170.90;;;48.72;;
45041;SDS011;30779;52.096;4.410;2022-12-10T15:54:12;151.90;;;46.13;;
45041;SDS011;30779;52.096;4.410;2022-12-10T15:57:46;169.50;;;48.80;;
45041;SDS011;30779;52.096;4.410;2022-12-10T16:00:44;157.38;;;48.20;;
45041;SDS011;30779;52.096;4.410;2022-12-10T16:03:46;180.85;;;47.72;;
45041;SDS011;30779;52.096;4.410;2022-12-10T16:06:47;156.45;;;46.78;;
45041;SDS011;30779;52.096;4.410;2022-12-10T16:09:48;174.82;;;47.83;;
45041;SDS011;30779;52.096;4.410;2022-12-10T16:12:55;184.93;;;57.25;;
45041;SDS011;30779;52.096;4.410;2022-12-10T16:15:59;142.23;;;49.53;;
45041;SDS011;30779;52.096;4.410;2022-12-10T16:19:01;182.23;;;55.70;;
45041;SDS011;30779;52.096;4.410;2022-12-10T16:22:02;171.25;;;50.78;;
45041;SDS011;30779;52.096;4.410;2022-12-10T16:25:03;177.20;;;52.22;;
45041;SDS011;30779;52.096;4.410;2022-12-10T16:28:04;172.70;;;50.30;;
45041;SDS011;30779;52.096;4.410;2022-12-10T16:31:07;164.68;;;49.10;;
45041;SDS011;30779;52.096;4.410;2022-12-10T16:34:10;177.30;;;52.13;;
45041;SDS011;30779;52.096;4.410;2022-12-10T16:37:11;140.73;;;44.50;;
45041;SDS011;30779;52.096;4.410;2022-12-10T16:40:13;172.82;;;51.92;;
45041;SDS011;30779;52.096;4.410;2022-12-10T16:43:15;170.43;;;49.88;;
45041;SDS011;30779;52.096;4.410;2022-12-10T16:46:16;196.48;;;53.83;;
45041;SDS011;30779;52.096;4.410;2022-12-10T16:49:17;182.93;;;54.40;;
45041;SDS011;30779;52.096;4.410;2022-12-10T16:52:18;178.88;;;53.45;;
45041;SDS011;30779;52.096;4.410;2022-12-10T16:55:21;170.65;;;52.13;;
45041;SDS011;30779;52.096;4.410;2022-12-10T16:58:23;138.07;;;45.77;;
45041;SDS011;30779;52.096;4.410;2022-12-10T17:01:28;164.40;;;48.47;;
45041;SDS011;30779;52.096;4.410;2022-12-10T17:04:30;148.48;;;48.35;;
45041;SDS011;30779;52.096;4.410;2022-12-10T17:07:31;170.30;;;48.78;;
45041;SDS011;30779;52.096;4.410;2022-12-10T17:10:32;149.60;;;48.03;;
45041;SDS011;30779;52.096;4.410;2022-12-10T17:13:52;151.75;;;47.72;;
45041;SDS011;30779;52.096;4.410;2022-12-10T17:16:54;164.50;;;47.70;;
45041;SDS011;30779;52.096;4.410;2022-12-10T17:19:57;202.38;;;66.32;;
45041;SDS011;30779;52.096;4.410;2022-12-10T17:22:58;199.07;;;65.90;;
45041;SDS011;30779;52.096;4.410;2022-12-10T17:26:02;185.27;;;61.22;;
45041;SDS011;30779;52.096;4.410;2022-12-10T17:29:05;168.60;;;49.05;;
45041;SDS011;30779;52.096;4.410;2022-12-10T17:32:10;149.35;;;49.55;;
45041;SDS011;30779;52.096;4.410;2022-12-10T17:35:12;148.00;;;48.75;;
45041;SDS011;30779;52.096;4.410;2022-12-10T17:38:17;149.20;;;47.92;;
45041;SDS011;30779;52.096;4.410;2022-12-10T17:41:18;151.05;;;46.05;;
45041;SDS011;30779;52.096;4.410;2022-12-10T17:44:19;151.07;;;47.55;;
45041;SDS011;30779;52.096;4.410;2022-12-10T17:47:23;132.73;;;47.70;;
45041;SDS011;30779;52.096;4.410;2022-12-10T17:50:28;171.90;;;58.70;;
45041;SDS011;30779;52.096;4.410;2022-12-10T17:53:29;150.23;;;47.30;;
45041;SDS011;30779;52.096;4.410;2022-12-10T17:56:30;144.57;;;48.00;;
45041;SDS011;30779;52.096;4.410;2022-12-10T17:59:31;132.07;;;46.92;;
45041;SDS011;30779;52.096;4.410;2022-12-10T18:02:32;116.20;;;47.33;;
45041;SDS011;30779;52.096;4.410;2022-12-10T18:05:33;142.63;;;48.03;;
45041;SDS011;30779;52.096;4.410;2022-12-10T18:08:34;127.72;;;43.05;;
45041;SDS011;30779;52.096;4.410;2022-12-10T18:11:35;119.97;;;41.38;;
45041;SDS011;30779;52.096;4.410;2022-12-10T18:14:37;122.95;;;43.78;;
45041;SDS011;30779;52.096;4.410;2022-12-10T18:17:38;138.25;;;44.30;;
45041;SDS011;30779;52.096;4.410;2022-12-10T18:20:40;123.68;;;41.83;;
45041;SDS011;30779;52.096;4.410;2022-12-10T18:23:41;110.90;;;36.70;;
45041;SDS011;30779;52.096;4.410;2022-12-10T18:26:42;107.50;;;39.70;;
45041;SDS011;30779;52.096;4.410;2022-12-10T18:29:44;119.85;;;39.50;;
45041;SDS011;30779;52.096;4.410;2022-12-10T18:32:45;110.78;;;37.97;;
45041;SDS011;30779;52.096;4.410;2022-12-10T18:35:46;109.97;;;39.50;;
45041;SDS011;30779;52.096;4.410;2022-12-10T18:38:47;132.75;;;55.92;;
45041;SDS011;30779;52.096;4.410;2022-12-10T18:41:49;122.75;;;40.50;;
45041;SDS011;30779;52.096;4.410;2022-12-10T18:44:50;122.05;;;48.25;;
45041;SDS011;30779;52.096;4.410;2022-12-10T18:47:51;106.30;;;38.78;;
45041;SDS011;30779;52.096;4.410;2022-12-10T18:50:52;96.60;;;37.80;;
45041;SDS011;30779;52.096;4.410;2022-12-10T18:53:54;102.00;;;37.38;;
45041;SDS011;30779;52.096;4.410;2022-12-10T18:56:55;93.32;;;35.65;;
45041;SDS011;30779;52.096;4.410;2022-12-10T18:59:56;68.65;;;30.70;;
45041;SDS011;30779;52.096;4.410;2022-12-10T19:02:57;75.20;;;31.77;;
45041;SDS011;30779;52.096;4.410;2022-12-10T19:05:58;74.03;;;29.92;;
45041;SDS011;30779;52.096;4.410;2022-12-10T19:08:59;74.88;;;32.53;;
45041;SDS011;30779;52.096;4.410;2022-12-10T19:12:02;67.25;;;32.33;;